createdAt,value
2019-05-23T00:01:09.043Z,93.33
2019-05-23T00:03:55.666Z,96.30
2019-05-23T00:06:25.822Z,96.80
2019-05-23T00:08:55.419Z,96.43
2019-05-23T00:11:41.702Z,96.80
2019-05-23T00:14:24.043Z,95.60
2019-05-23T00:16:54.108Z,93.40
2019-05-23T00:19:22.990Z,96.43
2019-05-23T00:21:51.582Z,96.87
2019-05-23T00:24:20.117Z,97.83
2019-05-23T00:26:48.541Z,100.20
2019-05-23T00:29:17.754Z,97.13
2019-05-23T00:31:47.865Z,94.50
2019-05-23T00:34:16.918Z,95.10
2019-05-23T00:36:46.275Z,96.87
2019-05-23T00:39:16.124Z,97.60
2019-05-23T00:41:44.849Z,98.20
2019-05-23T00:44:13.708Z,96.73
2019-05-23T00:46:43.919Z,96.70
2019-05-23T00:49:13.043Z,97.40
2019-05-23T00:51:41.444Z,97.03
2019-05-23T00:54:11.252Z,96.87
2019-05-23T00:56:39.692Z,97.03
2019-05-23T00:59:09.109Z,98.33
2019-05-23T01:01:39.128Z,98.30
2019-05-23T01:04:07.609Z,95.10
2019-05-23T01:06:36.391Z,96.90
2019-05-23T01:09:07.084Z,93.77
2019-05-23T01:11:36.527Z,94.87
2019-05-23T01:14:05.485Z,95.20
2019-05-23T01:16:34.121Z,94.13
2019-05-23T01:19:02.610Z,93.97
2019-05-23T01:21:41.701Z,92.87
2019-05-23T01:24:11.794Z,93.03
2019-05-23T01:26:40.300Z,92.53
2019-05-23T01:29:09.125Z,94.30
2019-05-23T01:31:45.334Z,95.37
2019-05-23T01:34:14.842Z,94.97
2019-05-23T01:36:43.708Z,97.00
2019-05-23T01:39:12.194Z,95.10
2019-05-23T01:41:41.558Z,93.73
2019-05-23T01:44:11.530Z,95.03
2019-05-23T01:46:41.226Z,94.23
2019-05-23T01:49:10.026Z,95.73
2019-05-23T01:51:38.441Z,92.30
2019-05-23T01:54:07.836Z,94.23
2019-05-23T01:56:37.451Z,98.37
2019-05-23T01:59:06.427Z,95.47
2019-05-23T02:01:37.622Z,93.33
2019-05-23T02:04:06.522Z,93.67
2019-05-23T02:06:35.302Z,95.47
2019-05-23T02:09:05.098Z,93.60
2019-05-23T02:11:33.784Z,93.07
2019-05-23T02:14:02.204Z,93.20
2019-05-23T02:16:32.155Z,93.43
2019-05-23T02:19:20.392Z,86.30
2019-05-23T02:21:50.394Z,87.23
2019-05-23T02:24:18.818Z,84.97
2019-05-23T02:26:48.052Z,93.57
2019-05-23T02:29:17.435Z,92.03
2019-05-23T02:31:46.227Z,94.07
2019-05-23T02:34:15.453Z,72.10
2019-05-23T02:36:44.398Z,93.23
2019-05-23T02:39:23.442Z,92.83
2019-05-23T02:41:56.719Z,90.43
2019-05-23T02:44:26.004Z,92.03
2019-05-23T02:47:05.186Z,86.60
2019-05-23T02:49:34.771Z,118.73
2019-05-23T02:52:23.346Z,104.07
2019-05-23T02:54:52.297Z,90.70
2019-05-23T02:57:22.058Z,92.90
2019-05-23T02:59:53.090Z,95.87
2019-05-23T03:02:39.494Z,90.63
2019-05-23T03:05:15.075Z,91.17
2019-05-23T03:07:45.250Z,91.43
2019-05-23T03:10:14.149Z,80.83
2019-05-23T03:12:43.846Z,78.50
2019-05-23T03:15:14.580Z,91.00
2019-05-23T03:17:43.190Z,90.83
2019-05-23T03:20:13.543Z,90.73
2019-05-23T03:22:49.290Z,86.97
2019-05-23T03:25:31.474Z,78.90
2019-05-23T03:28:01.059Z,73.17
2019-05-23T03:30:31.275Z,89.93
2019-05-23T03:33:01.379Z,93.43
2019-05-23T03:35:34.596Z,92.00
2019-05-23T03:38:04.178Z,86.77
2019-05-23T03:40:33.241Z,91.63
2019-05-23T03:43:02.790Z,79.00
2019-05-23T03:45:32.978Z,83.17
2019-05-23T03:48:02.114Z,86.57
2019-05-23T03:50:30.590Z,86.10
2019-05-23T03:52:59.667Z,86.80
2019-05-23T03:55:28.868Z,68.20
2019-05-23T03:57:57.990Z,82.63
2019-05-23T04:00:28.170Z,50.73
2019-05-23T04:02:57.600Z,58.07
2019-05-23T04:05:26.236Z,52.87
2019-05-23T04:07:54.710Z,52.77
2019-05-23T04:10:23.734Z,44.07
2019-05-23T04:12:52.247Z,35.67
2019-05-23T04:15:22.175Z,59.13
2019-05-23T04:17:50.591Z,21.10
2019-05-23T04:20:19.340Z,50.70
2019-05-23T04:22:48.055Z,62.00
2019-05-23T04:25:16.666Z,82.07
2019-05-23T04:27:45.403Z,85.60
2019-05-23T04:30:15.573Z,71.53
2019-05-23T04:32:44.141Z,67.77
2019-05-23T04:35:12.778Z,64.70
2019-05-23T04:37:41.254Z,65.57
2019-05-23T04:40:11.312Z,83.80
2019-05-23T04:42:40.131Z,70.87
2019-05-23T04:45:08.621Z,92.37
2019-05-23T04:47:38.344Z,83.60
2019-05-23T04:50:08.706Z,87.63
2019-05-23T04:52:38.689Z,67.00
2019-05-23T04:55:10.669Z,58.17
2019-05-23T04:57:40.910Z,50.63
2019-05-23T05:00:13.236Z,71.20
2019-05-23T05:02:41.784Z,54.47
2019-05-23T05:05:11.868Z,93.63
2019-05-23T05:07:40.632Z,96.97
2019-05-23T05:10:10.150Z,72.90
2019-05-23T05:12:39.078Z,66.37
2019-05-23T05:15:10.252Z,45.17
2019-05-23T05:17:39.694Z,18.87
2019-05-23T05:20:08.323Z,8.20
2019-05-23T05:22:37.192Z,11.47
2019-05-23T05:25:07.503Z,12.23
2019-05-23T05:27:36.575Z,8.00
2019-05-23T05:30:08.332Z,22.07
2019-05-23T05:32:44.696Z,9.90
2019-05-23T05:35:09.285Z,35.97
2019-05-23T05:37:37.827Z,17.20
2019-05-23T05:40:08.301Z,8.33
2019-05-23T05:42:36.813Z,43.30
2019-05-23T05:45:10.239Z,32.07
2019-05-23T05:47:39.018Z,43.87
2019-05-23T05:50:09.553Z,66.97
2019-05-23T05:52:39.030Z,51.97
2019-05-23T05:55:07.646Z,20.97
2019-05-23T05:57:36.778Z,20.63
2019-05-23T06:00:21.172Z,67.93
2019-05-23T06:03:03.631Z,91.80
2019-05-23T06:05:29.276Z,76.87
2019-05-23T06:07:58.283Z,88.37
2019-05-23T06:10:27.174Z,96.50
2019-05-23T06:12:55.751Z,90.67
2019-05-23T06:15:25.457Z,83.63
2019-05-23T06:17:54.082Z,75.10
2019-05-23T06:20:22.579Z,70.20
2019-05-23T06:22:52.281Z,55.13
2019-05-23T06:25:21.174Z,61.70
2019-05-23T06:27:49.707Z,74.60
2019-05-23T06:30:18.429Z,65.17
2019-05-23T06:32:46.914Z,47.70
2019-05-23T06:35:14.783Z,48.27
2019-05-23T06:37:43.557Z,62.13
2019-05-23T06:40:12.491Z,34.47
2019-05-23T06:42:40.902Z,75.00
2019-05-23T06:45:10.626Z,48.73
2019-05-23T06:47:39.650Z,53.13
2019-05-23T06:50:16.205Z,78.97
2019-05-23T06:52:44.755Z,92.40
2019-05-23T06:55:13.477Z,74.10
2019-05-23T06:57:42.006Z,58.70
2019-05-23T07:00:10.575Z,39.07
2019-05-23T07:02:40.234Z,57.00
2019-05-23T07:05:08.849Z,91.93
2019-05-23T07:07:38.844Z,91.30
2019-05-23T07:10:08.136Z,92.07
2019-05-23T07:12:36.577Z,58.83
2019-05-23T07:15:09.407Z,40.97
2019-05-23T07:17:38.270Z,14.70
2019-05-23T07:20:10.116Z,66.90
2019-05-23T07:22:38.948Z,76.60
2019-05-23T07:25:07.517Z,90.40
2019-05-23T07:27:36.160Z,71.63
2019-05-23T07:30:14.204Z,92.23
2019-05-23T07:32:42.704Z,90.07
2019-05-23T07:35:11.253Z,78.87
2019-05-23T07:37:39.829Z,51.63
2019-05-23T07:40:11.246Z,78.60
2019-05-23T07:42:40.021Z,67.30
2019-05-23T07:45:19.041Z,75.07
2019-05-23T07:47:47.521Z,56.40
2019-05-23T07:50:16.004Z,40.07
2019-05-23T07:52:44.564Z,17.27
2019-05-23T07:55:20.330Z,91.77
2019-05-23T07:57:48.873Z,83.77
2019-05-23T08:00:19.023Z,93.53
2019-05-23T08:02:47.631Z,92.97
2019-05-23T08:05:16.793Z,100.13
2019-05-23T08:07:46.417Z,92.07
2019-05-23T08:10:30.935Z,90.03
2019-05-23T08:12:45.621Z,91.80
2019-05-23T08:15:14.274Z,92.00
2019-05-23T08:17:43.001Z,92.77
2019-05-23T08:20:12.065Z,92.47
2019-05-23T08:22:40.651Z,94.37
2019-05-23T08:25:09.212Z,93.77
2019-05-23T08:27:37.753Z,92.60
2019-05-23T08:30:07.934Z,93.63
2019-05-23T08:32:36.485Z,90.90
2019-05-23T08:35:07.067Z,90.07
2019-05-23T08:37:36.074Z,75.03
2019-05-23T08:40:06.176Z,91.33
2019-05-23T08:42:36.567Z,91.70
2019-05-23T08:45:09.628Z,100.00
2019-05-23T08:47:39.030Z,92.53
2019-05-23T08:50:09.433Z,80.17
2019-05-23T08:52:37.971Z,84.90
2019-05-23T08:55:21.555Z,48.43
2019-05-23T08:57:50.993Z,9.27
2019-05-23T09:00:20.773Z,9.30
2019-05-23T09:02:49.582Z,3.07
2019-05-23T09:05:19.171Z,3.60
2019-05-23T09:07:48.306Z,24.50
2019-05-23T09:10:18.008Z,93.93
2019-05-23T09:12:48.121Z,95.73
2019-05-23T09:15:16.803Z,96.80
2019-05-23T09:17:52.777Z,71.27
2019-05-23T09:20:18.119Z,122.53
2019-05-23T09:22:46.652Z,13.60
2019-05-23T09:25:15.312Z,88.83
2019-05-23T09:27:45.596Z,95.47
2019-05-23T09:30:14.547Z,98.17
2019-05-23T09:32:43.143Z,67.57
2019-05-23T09:35:20.845Z,3.13
2019-05-23T09:37:42.444Z,26.43
2019-05-23T09:40:11.402Z,94.63
2019-05-23T09:42:39.876Z,96.00
2019-05-23T09:45:08.378Z,94.47
2019-05-23T09:47:37.121Z,96.23
2019-05-23T09:50:08.090Z,96.20
2019-05-23T09:52:37.063Z,94.37
2019-05-23T09:55:08.398Z,89.80
2019-05-23T09:57:36.855Z,90.83
2019-05-23T10:00:09.175Z,63.33
2019-05-23T10:02:37.743Z,94.60
2019-05-23T10:05:11.560Z,93.63
2019-05-23T10:07:40.161Z,98.67
2019-05-23T10:10:30.305Z,96.70
2019-05-23T10:12:59.743Z,104.93
2019-05-23T10:15:38.881Z,108.00
2019-05-23T10:18:09.614Z,92.17
2019-05-23T10:20:39.373Z,106.17
2019-05-23T10:23:07.950Z,99.77
2019-05-23T10:25:36.561Z,106.70
2019-05-23T10:28:06.868Z,160.83
2019-05-23T10:30:36.859Z,165.73
2019-05-23T10:33:12.383Z,164.90
2019-05-23T10:35:37.351Z,151.07
2019-05-23T10:38:06.110Z,191.83
2019-05-23T10:40:35.207Z,140.77
2019-05-23T10:43:03.887Z,150.20
2019-05-23T10:45:32.742Z,146.43
2019-05-23T10:48:01.494Z,145.93
2019-05-23T10:50:43.542Z,150.27
2019-05-23T10:53:00.729Z,104.20
2019-05-23T10:55:29.528Z,123.57
2019-05-23T10:57:58.081Z,125.90
2019-05-23T11:00:28.273Z,118.27
2019-05-23T11:02:57.043Z,122.07
2019-05-23T11:05:25.603Z,107.17
2019-05-23T11:07:54.466Z,84.83
2019-05-23T11:10:23.300Z,113.33
2019-05-23T11:12:52.142Z,124.70
2019-05-23T11:15:21.777Z,108.87
2019-05-23T11:17:53.425Z,136.83
2019-05-23T11:20:35.991Z,137.03
2019-05-23T11:23:05.753Z,127.03
2019-05-23T11:25:35.132Z,139.37
2019-05-23T11:28:16.515Z,131.93
2019-05-23T11:30:48.774Z,162.17
2019-05-23T11:33:17.858Z,128.03
2019-05-23T11:35:47.072Z,99.43
2019-05-23T11:38:15.806Z,118.47
2019-05-23T11:40:44.327Z,100.17
2019-05-23T11:43:13.410Z,97.90
2019-05-23T11:45:49.897Z,98.17
2019-05-23T11:48:18.839Z,92.90
2019-05-23T11:50:47.394Z,94.17
2019-05-23T11:53:16.954Z,128.87
2019-05-23T11:55:45.490Z,121.23
2019-05-23T11:58:14.477Z,108.23
2019-05-23T12:03:37.041Z,110.63
2019-05-23T12:06:06.343Z,120.70
2019-05-23T12:08:35.682Z,122.87
2019-05-23T12:11:05.023Z,116.30
2019-05-23T12:13:33.720Z,106.47
2019-05-23T12:16:04.227Z,125.63
2019-05-23T12:18:33.482Z,160.47
2019-05-23T12:21:01.988Z,173.67
2019-05-23T12:23:31.206Z,121.17
2019-05-23T12:25:59.817Z,130.40
2019-05-23T12:28:30.376Z,102.20
2019-05-23T12:30:59.608Z,116.00
2019-05-23T12:33:28.633Z,89.40
2019-05-23T12:35:57.312Z,102.87
2019-05-23T12:38:26.586Z,104.57
2019-05-23T12:40:56.139Z,124.90
2019-05-23T12:43:24.803Z,161.10
2019-05-23T12:45:53.333Z,123.20
2019-05-23T12:48:29.557Z,151.17
2019-05-23T12:51:05.244Z,127.07
2019-05-23T12:53:34.798Z,132.97
2019-05-23T12:56:04.047Z,137.77
2019-05-23T12:58:34.244Z,4.70
2019-05-23T13:01:04.468Z,61.93
2019-05-23T13:03:33.510Z,98.77
2019-05-23T13:06:02.142Z,94.77
2019-05-23T13:08:30.766Z,93.10
2019-05-23T13:10:59.396Z,96.47
2019-05-23T13:13:28.011Z,96.43
2019-05-23T13:15:56.604Z,95.20
2019-05-23T13:18:26.388Z,95.63
2019-05-23T13:20:58.698Z,94.53
2019-05-23T13:23:25.459Z,95.83
2019-05-23T13:25:54.104Z,95.40
2019-05-23T13:28:22.802Z,96.00
2019-05-23T13:30:51.498Z,95.67
2019-05-23T13:33:20.144Z,94.03
2019-05-23T13:35:48.865Z,96.60
2019-05-23T13:38:17.550Z,96.50
2019-05-23T13:40:46.145Z,96.50
2019-05-23T13:43:14.764Z,97.57
2019-05-23T13:45:44.007Z,98.57
2019-05-23T13:48:12.649Z,98.10
2019-05-23T13:50:41.273Z,96.77
2019-05-23T13:53:10.325Z,97.33
2019-05-23T13:55:38.983Z,97.30
2019-05-23T13:58:07.649Z,96.57
2019-05-23T14:00:36.613Z,94.87
2019-05-23T14:03:05.562Z,95.93
2019-05-23T14:05:34.380Z,94.57
2019-05-23T14:08:12.447Z,98.87
2019-05-23T14:10:33.688Z,97.63
2019-05-23T14:13:02.327Z,95.43
2019-05-23T14:15:41.752Z,95.10
2019-05-23T14:18:11.268Z,96.37
2019-05-23T14:20:41.195Z,95.27
2019-05-23T14:23:20.567Z,97.53
2019-05-23T14:25:50.801Z,95.93
2019-05-23T14:28:19.917Z,97.83
2019-05-23T14:30:55.812Z,99.47
2019-05-23T14:33:25.931Z,95.37
2019-05-23T14:35:56.834Z,97.93
2019-05-23T14:38:30.966Z,99.80
2019-05-23T14:40:57.640Z,94.70
2019-05-23T14:43:27.191Z,94.93
2019-05-23T14:46:09.303Z,95.00
2019-05-23T14:48:45.625Z,95.80
2019-05-23T14:51:34.242Z,93.10
2019-05-23T14:54:04.419Z,97.73
2019-05-23T14:56:34.623Z,97.77
2019-05-23T14:59:03.569Z,95.50
2019-05-23T15:01:33.765Z,99.33
2019-05-23T15:04:02.541Z,95.30
2019-05-23T15:06:31.194Z,97.37
2019-05-23T15:08:59.854Z,96.93
2019-05-23T15:11:28.592Z,94.30
2019-05-23T15:13:57.447Z,96.40
2019-05-23T15:16:26.180Z,94.93
2019-05-23T15:18:54.860Z,96.57
2019-05-23T15:21:24.431Z,97.00
2019-05-23T15:23:53.367Z,97.27
2019-05-23T15:26:23.631Z,74.90
2019-05-23T15:28:52.547Z,98.07
2019-05-23T15:31:21.518Z,98.23
2019-05-23T15:33:50.163Z,96.70
2019-05-23T15:36:18.885Z,97.40
2019-05-23T15:38:47.628Z,98.23
2019-05-23T15:41:16.392Z,95.17
2019-05-23T15:43:45.075Z,95.90
2019-05-23T15:46:13.664Z,95.47
2019-05-23T15:48:42.606Z,95.27
2019-05-23T15:51:12.731Z,95.57
2019-05-23T15:53:49.199Z,91.83
2019-05-23T15:56:28.237Z,81.50
2019-05-23T15:58:54.139Z,86.17
2019-05-23T16:01:24.259Z,91.77
2019-05-23T16:04:00.424Z,97.63
2019-05-23T16:06:33.213Z,95.73
2019-05-23T16:09:01.695Z,97.83
2019-05-23T16:11:30.257Z,96.03
2019-05-23T16:13:58.843Z,90.70
2019-05-23T16:16:28.302Z,95.50
2019-05-23T16:18:57.006Z,93.67
2019-05-23T16:21:26.686Z,94.63
2019-05-23T16:23:55.656Z,95.57
2019-05-23T16:26:24.342Z,95.50
2019-05-23T16:28:52.823Z,94.93
2019-05-23T16:31:21.400Z,95.50
2019-05-23T16:33:50.026Z,90.20
2019-05-23T16:36:18.664Z,95.80
2019-05-23T16:38:47.265Z,96.03
2019-05-23T16:41:15.975Z,86.90
2019-05-23T16:43:44.561Z,82.57
2019-05-23T16:46:13.226Z,94.90
2019-05-23T16:48:42.300Z,77.27
2019-05-23T16:51:10.995Z,76.63
2019-05-23T16:53:40.298Z,78.60
2019-05-23T16:56:10.540Z,80.57
2019-05-23T16:58:49.569Z,84.50
2019-05-23T17:01:25.776Z,69.50
2019-05-23T17:03:58.518Z,94.20
2019-05-23T17:06:34.838Z,76.27
2019-05-23T17:09:21.541Z,97.63
2019-05-23T17:11:51.758Z,88.83
2019-05-23T17:14:30.689Z,78.43
2019-05-23T17:17:07.791Z,95.60
2019-05-23T17:19:44.139Z,97.40
2019-05-23T17:22:18.207Z,88.70
2019-05-23T17:24:48.420Z,79.20
2019-05-23T17:27:18.643Z,94.83
2019-05-23T17:29:48.903Z,89.20
2019-05-23T17:32:19.118Z,71.50
2019-05-23T17:34:47.803Z,70.70
2019-05-23T17:37:16.529Z,46.97
2019-05-23T17:39:46.742Z,80.77
2019-05-23T17:42:15.317Z,60.03
2019-05-23T17:44:44.299Z,96.77
2019-05-23T17:47:12.867Z,80.13
2019-05-23T17:49:41.448Z,77.17
2019-05-23T17:52:10.350Z,94.17
2019-05-23T17:54:39.568Z,99.10
2019-05-23T17:57:09.143Z,75.27
2019-05-23T17:59:37.775Z,94.53
2019-05-23T18:02:07.523Z,89.03
2019-05-23T18:04:36.163Z,97.63
2019-05-23T18:07:05.949Z,89.87
2019-05-23T18:09:34.729Z,95.77
2019-05-23T18:12:04.414Z,95.87
2019-05-23T18:14:33.785Z,76.30
2019-05-23T18:17:02.346Z,64.83
2019-05-23T18:19:31.311Z,41.47
2019-05-23T18:21:59.986Z,97.80
2019-05-23T18:24:29.712Z,58.70
2019-05-23T18:26:58.526Z,2.90
2019-05-23T18:29:27.507Z,3.23
2019-05-23T18:31:56.539Z,3.37
2019-05-23T18:34:26.395Z,3.77
2019-05-23T18:36:56.484Z,3.17
2019-05-23T18:39:27.232Z,2.33
2019-05-23T18:41:56.199Z,2.10
2019-05-23T18:44:25.465Z,3.17
2019-05-23T18:46:59.054Z,2.30
2019-05-23T18:49:28.913Z,2.47
2019-05-23T18:51:58.179Z,3.30
2019-05-23T18:54:27.404Z,4.00
2019-05-23T18:56:59.112Z,3.03
2019-05-23T18:59:28.418Z,2.40
2019-05-23T19:01:57.197Z,4.20
2019-05-23T19:04:26.089Z,3.00
2019-05-23T19:06:55.107Z,3.90
2019-05-23T19:09:25.055Z,3.77
2019-05-23T19:11:53.818Z,3.63
2019-05-23T19:14:22.543Z,2.40
2019-05-23T19:16:51.330Z,2.90
2019-05-23T19:19:20.332Z,2.83
2019-05-23T19:21:49.537Z,2.47
2019-05-23T19:24:18.159Z,2.53
2019-05-23T19:26:49.224Z,103.27
2019-05-23T19:29:18.293Z,104.27
2019-05-23T19:31:47.383Z,94.00
2019-05-23T19:34:16.100Z,73.50
2019-05-23T19:36:44.841Z,64.87
2019-05-23T19:39:14.707Z,45.83
2019-05-23T19:41:43.360Z,29.27
2019-05-23T19:44:12.803Z,30.80
2019-05-23T19:46:41.497Z,37.20
2019-05-23T19:49:11.061Z,10.70
2019-05-23T19:51:40.210Z,14.43
2019-05-23T19:54:09.127Z,13.70
2019-05-23T19:56:38.693Z,89.60
2019-05-23T19:59:07.585Z,95.77
2019-05-23T20:01:37.979Z,76.23
2019-05-23T20:04:08.278Z,56.97
2019-05-23T20:06:37.530Z,15.20
2019-05-23T20:09:09.635Z,34.77
2019-05-23T20:11:53.303Z,5.27
2019-05-23T20:14:09.192Z,9.17
2019-05-23T20:16:37.977Z,23.00
2019-05-23T20:19:06.695Z,9.47
2019-05-23T20:21:35.331Z,32.70
2019-05-23T20:24:03.901Z,80.10
2019-05-23T20:26:32.528Z,87.20
2019-05-23T20:29:03.270Z,73.07
2019-05-23T20:31:31.413Z,83.60
2019-05-23T20:34:00.079Z,85.00
2019-05-23T20:36:28.791Z,97.37
2019-05-23T20:38:57.415Z,95.37
2019-05-23T20:41:26.090Z,102.57
2019-05-23T20:43:54.742Z,143.33
2019-05-23T20:46:23.525Z,96.23
2019-05-23T20:48:52.670Z,98.73
2019-05-23T20:51:22.817Z,100.30
2019-05-23T20:53:51.674Z,97.83
2019-05-23T20:56:20.307Z,91.93
2019-05-23T20:58:48.804Z,64.77
2019-05-23T21:01:18.994Z,60.60
2019-05-23T21:03:48.489Z,19.67
2019-05-23T21:06:17.198Z,6.33
2019-05-23T21:08:45.775Z,41.73
2019-05-23T21:11:15.208Z,94.83
2019-05-23T21:13:43.826Z,73.00
2019-05-23T21:16:12.603Z,78.10
2019-05-23T21:18:41.125Z,89.90
2019-05-23T21:21:09.705Z,86.90
2019-05-23T21:23:38.581Z,83.87
2019-05-23T21:26:07.178Z,44.10
2019-05-23T21:28:35.675Z,8.17
2019-05-23T21:31:06.806Z,5.43
2019-05-23T21:33:35.508Z,10.87
2019-05-23T21:36:04.189Z,5.20
2019-05-23T21:38:33.112Z,4.37
2019-05-23T21:41:03.365Z,5.03
2019-05-23T21:43:31.796Z,4.23
2019-05-23T21:46:00.375Z,4.43
2019-05-23T21:48:28.902Z,4.80
2019-05-23T21:50:57.394Z,6.37
2019-05-23T21:53:25.949Z,7.33
2019-05-23T21:55:54.384Z,4.57
2019-05-23T21:58:23.135Z,8.27
2019-05-23T22:01:08.506Z,19.17
2019-05-23T22:03:54.254Z,25.33
2019-05-23T22:06:34.426Z,41.63
2019-05-23T22:09:04.496Z,51.03
2019-05-23T22:11:32.983Z,9.20
2019-05-23T22:14:01.610Z,5.53
2019-05-23T22:16:30.446Z,47.83
2019-05-23T22:18:59.321Z,75.53
2019-05-23T22:21:28.203Z,79.03
2019-05-23T22:23:56.698Z,55.23
2019-05-23T22:26:25.350Z,15.53
2019-05-23T22:28:54.355Z,5.70
2019-05-23T22:31:24.093Z,6.47
2019-05-23T22:34:12.188Z,5.23
2019-05-23T22:36:40.879Z,6.10
2019-05-23T22:39:09.538Z,7.63
2019-05-23T22:41:38.164Z,6.83
2019-05-23T22:44:08.192Z,7.20
2019-05-23T22:46:36.778Z,5.50
2019-05-23T22:49:05.236Z,5.80
2019-05-23T22:51:33.654Z,43.77
2019-05-23T22:54:02.527Z,57.00
2019-05-23T22:56:31.123Z,79.80
2019-05-23T22:58:59.901Z,72.50
2019-05-23T23:01:29.623Z,26.67
2019-05-23T23:03:58.143Z,8.63
2019-05-23T23:06:27.281Z,6.37
2019-05-23T23:08:55.776Z,7.07
2019-05-23T23:11:24.235Z,30.20
2019-05-23T23:13:52.750Z,83.63
2019-05-23T23:16:21.348Z,85.43
2019-05-23T23:18:50.138Z,55.73
2019-05-23T23:21:18.621Z,29.87
2019-05-23T23:23:47.157Z,6.40
2019-05-23T23:26:15.710Z,12.33
2019-05-23T23:28:44.266Z,67.00
2019-05-23T23:31:12.847Z,67.03
2019-05-23T23:33:42.458Z,12.10
2019-05-23T23:36:10.994Z,7.43
2019-05-23T23:38:39.645Z,7.63
2019-05-23T23:41:08.191Z,9.07
2019-05-23T23:43:36.712Z,5.93
2019-05-23T23:46:23.201Z,7.53
2019-05-23T23:49:09.597Z,7.67
2019-05-23T23:51:56.197Z,6.50
2019-05-23T23:54:42.560Z,5.87
2019-05-23T23:57:28.837Z,6.23
2019-05-23T23:59:58.883Z,7.40
